createdAt,value
2018-08-10T00:00:06.569Z,99.90
2018-08-10T00:02:33.528Z,99.90
2018-08-10T00:05:00.417Z,99.90
2018-08-10T00:07:28.068Z,99.90
2018-08-10T00:09:55.814Z,99.90
2018-08-10T00:12:22.782Z,99.90
2018-08-10T00:14:50.381Z,99.90
2018-08-10T00:17:17.383Z,99.90
2018-08-10T00:19:45.010Z,99.90
2018-08-10T00:22:11.934Z,99.90
2018-08-10T00:24:38.886Z,99.90
2018-08-10T00:27:05.795Z,99.90
2018-08-10T00:29:33.451Z,99.90
2018-08-10T00:32:01.108Z,99.90
2018-08-10T00:34:28.779Z,99.90
2018-08-10T00:36:56.421Z,99.90
2018-08-10T00:39:23.396Z,99.90
2018-08-10T00:41:50.288Z,99.90
2018-08-10T00:44:17.301Z,99.90
2018-08-10T00:46:44.191Z,99.90
2018-08-10T00:49:11.165Z,99.90
2018-08-10T00:51:38.764Z,99.90
2018-08-10T00:54:05.709Z,99.90
2018-08-10T00:56:32.628Z,99.90
2018-08-10T00:59:00.297Z,99.90
2018-08-10T01:01:27.947Z,99.90
2018-08-10T01:03:55.620Z,99.90
2018-08-10T01:06:22.483Z,99.90
2018-08-10T01:08:49.417Z,99.90
2018-08-10T01:11:16.449Z,99.90
2018-08-10T01:13:45.261Z,99.90
2018-08-10T01:16:12.170Z,99.90
2018-08-10T01:18:39.144Z,99.90
2018-08-10T01:21:06.058Z,99.90
2018-08-10T01:23:33.037Z,99.90
2018-08-10T01:25:59.902Z,99.90
2018-08-10T01:28:26.973Z,99.90
2018-08-10T01:30:54.595Z,99.90
2018-08-10T01:33:21.500Z,99.90
2018-08-10T01:35:48.392Z,99.90
2018-08-10T01:38:15.381Z,99.90
2018-08-10T01:40:42.233Z,99.90
2018-08-10T01:43:09.089Z,99.90
2018-08-10T01:45:36.000Z,99.90
2018-08-10T01:48:02.938Z,99.90
2018-08-10T01:50:29.883Z,99.90
2018-08-10T01:52:56.724Z,99.90
2018-08-10T01:55:23.627Z,99.90
2018-08-10T01:57:51.260Z,99.90
2018-08-10T02:00:18.221Z,99.90
2018-08-10T02:02:45.087Z,99.90
2018-08-10T02:05:12.065Z,99.90
2018-08-10T02:07:39.024Z,99.90
2018-08-10T02:10:05.960Z,99.90
2018-08-10T02:12:32.905Z,99.90
2018-08-10T02:14:59.755Z,99.90
2018-08-10T02:17:26.690Z,99.90
2018-08-10T02:19:53.556Z,99.90
2018-08-10T02:22:20.502Z,99.90
2018-08-10T02:24:47.376Z,99.90
2018-08-10T02:27:15.060Z,99.90
2018-08-10T02:29:42.728Z,99.90
2018-08-10T02:32:10.315Z,99.90
2018-08-10T02:34:37.233Z,99.90
2018-08-10T02:37:04.159Z,99.90
2018-08-10T02:39:31.073Z,99.90
2018-08-10T02:41:57.964Z,99.90
2018-08-10T02:44:25.678Z,99.90
2018-08-10T02:46:52.625Z,99.90
2018-08-10T02:49:19.472Z,99.90
2018-08-10T02:51:46.426Z,99.90
2018-08-10T02:54:13.341Z,99.90
2018-08-10T02:56:40.267Z,99.90
2018-08-10T02:59:07.124Z,99.90
2018-08-10T03:01:34.085Z,99.90
2018-08-10T03:04:00.920Z,99.90
2018-08-10T03:06:27.893Z,99.90
2018-08-10T03:08:54.794Z,99.90
2018-08-10T03:11:21.778Z,99.90
2018-08-10T03:13:48.627Z,99.90
2018-08-10T03:16:15.544Z,99.90
2018-08-10T03:18:42.407Z,99.90
2018-08-10T03:21:09.387Z,99.90
2018-08-10T03:23:36.231Z,99.90
2018-08-10T03:26:03.209Z,99.90
2018-08-10T03:28:30.816Z,99.90
2018-08-10T03:30:57.737Z,99.90
2018-08-10T03:33:24.621Z,99.90
2018-08-10T03:35:51.595Z,99.90
2018-08-10T03:38:19.234Z,99.90
2018-08-10T03:40:46.144Z,99.90
2018-08-10T03:43:13.014Z,99.90
2018-08-10T03:45:39.945Z,99.90
2018-08-10T03:48:06.812Z,99.90
2018-08-10T03:50:33.712Z,99.90
2018-08-10T03:53:01.724Z,99.90
2018-08-10T03:55:28.653Z,99.90
2018-08-10T03:57:55.505Z,99.90
2018-08-10T04:00:22.427Z,99.90
2018-08-10T04:02:49.435Z,99.90
2018-08-10T04:05:17.036Z,99.90
2018-08-10T04:07:43.952Z,99.90
2018-08-10T04:10:11.647Z,99.90
2018-08-10T04:12:38.607Z,99.90
2018-08-10T04:15:05.513Z,99.90
2018-08-10T04:17:32.484Z,99.90
2018-08-10T04:19:59.329Z,99.90
2018-08-10T04:22:26.270Z,99.90
2018-08-10T04:24:53.284Z,99.90
2018-08-10T04:30:04.204Z,99.90
2018-08-10T04:32:32.072Z,99.90
2018-08-10T04:34:59.120Z,99.90
2018-08-10T04:37:26.083Z,99.90
2018-08-10T04:39:52.944Z,99.90
2018-08-10T04:42:19.914Z,99.90
2018-08-10T04:44:46.832Z,99.90
2018-08-10T04:47:29.492Z,99.90
2018-08-10T04:49:57.736Z,99.90
2018-08-10T04:52:24.697Z,99.90
2018-08-10T04:54:51.544Z,99.90
2018-08-10T04:57:18.436Z,99.90
2018-08-10T04:59:45.349Z,99.90
2018-08-10T05:02:13.036Z,99.90
2018-08-10T05:04:39.965Z,99.90
2018-08-10T05:07:07.700Z,99.90
2018-08-10T05:09:34.573Z,99.90
2018-08-10T05:12:02.303Z,99.90
2018-08-10T05:14:44.138Z,99.90
2018-08-10T05:17:16.592Z,99.90
2018-08-10T05:19:47.960Z,99.90
2018-08-10T05:22:17.953Z,99.90
2018-08-10T05:27:45.938Z,99.90
2018-08-10T05:33:15.812Z,99.90
2018-08-10T05:35:57.921Z,99.40
2018-08-10T05:38:43.784Z,98.80
2018-08-10T05:41:24.890Z,98.80
2018-08-10T05:44:11.771Z,99.30
2018-08-10T05:46:56.333Z,99.90
2018-08-10T05:49:41.678Z,99.90
2018-08-10T05:52:24.193Z,99.90
2018-08-10T05:55:06.820Z,99.90
2018-08-10T05:57:50.508Z,99.90
2018-08-10T06:00:34.549Z,99.90
2018-08-10T06:03:22.654Z,99.90
2018-08-10T06:06:04.407Z,99.90
2018-08-10T06:11:34.753Z,99.90
2018-08-10T06:14:22.459Z,99.90
2018-08-10T06:17:04.380Z,99.90
2018-08-10T06:19:47.872Z,99.90
2018-08-10T06:25:13.856Z,99.90
2018-08-10T06:27:54.374Z,99.90
2018-08-10T06:30:37.161Z,99.90
2018-08-10T06:33:23.048Z,99.90
2018-08-10T06:36:05.676Z,99.90
2018-08-10T06:38:49.680Z,99.90
2018-08-10T06:41:30.404Z,99.90
2018-08-10T06:46:56.199Z,99.90
2018-08-10T06:49:39.464Z,99.90
2018-08-10T07:01:02.151Z,99.90
2018-08-10T07:03:31.346Z,99.90
2018-08-10T07:06:10.841Z,99.90
2018-08-10T07:08:39.868Z,99.90
2018-08-10T07:11:19.578Z,99.90
2018-08-10T07:14:00.475Z,99.90
2018-08-10T07:16:28.996Z,99.90
2018-08-10T07:19:08.414Z,99.90
2018-08-10T07:21:49.721Z,99.90
2018-08-10T07:24:30.852Z,99.90
2018-08-10T07:27:09.485Z,99.90
2018-08-10T07:29:49.499Z,99.90
2018-08-10T07:32:19.153Z,99.90
2018-08-10T07:40:31.359Z,99.90
2018-08-10T07:43:02.299Z,99.80
2018-08-10T07:45:31.717Z,99.90
2018-08-10T07:48:00.224Z,99.90
2018-08-10T07:50:28.227Z,99.90
2018-08-10T07:52:54.760Z,99.90
2018-08-10T07:55:23.943Z,99.50
2018-08-10T07:57:52.573Z,99.00
2018-08-10T08:00:19.085Z,99.00
2018-08-10T08:02:47.519Z,98.40
2018-08-10T08:05:17.034Z,98.70
2018-08-10T08:07:48.897Z,98.70
2018-08-10T08:10:21.532Z,98.90
2018-08-10T08:12:49.280Z,98.90
2018-08-10T08:15:17.307Z,98.40
2018-08-10T08:17:47.254Z,98.00
2018-08-10T08:20:13.602Z,97.70
2018-08-10T08:22:40.577Z,96.30
2018-08-10T08:25:06.858Z,96.30
2018-08-10T08:27:33.134Z,94.80
2018-08-10T08:29:59.430Z,89.80
2018-08-10T08:35:00.180Z,70.80
2018-08-10T08:37:26.883Z,73.60
2018-08-10T08:39:53.955Z,73.90
2018-08-10T08:42:20.589Z,73.90
2018-08-10T08:44:46.932Z,73.70
2018-08-10T08:47:13.620Z,72.00
2018-08-10T08:49:40.315Z,72.40
2018-08-10T08:52:07.361Z,73.80
2018-08-10T08:54:42.437Z,68.80
2018-08-10T08:57:08.761Z,68.80
2018-08-10T08:59:36.025Z,65.20
2018-08-10T09:02:02.337Z,65.10
2018-08-10T09:04:28.591Z,64.60
2018-08-10T09:06:54.874Z,64.80
2018-08-10T09:09:38.086Z,65.70
2018-08-10T09:12:04.572Z,64.70
2018-08-10T09:14:35.834Z,65.60
2018-08-10T09:17:03.556Z,65.40
2018-08-10T09:19:30.254Z,66.60
2018-08-10T09:21:56.622Z,66.30
2018-08-10T09:24:22.870Z,66.30
2018-08-10T09:26:49.877Z,64.80
2018-08-10T09:29:16.196Z,66.10
2018-08-10T09:31:42.470Z,67.00
2018-08-10T09:34:10.029Z,70.80
2018-08-10T09:36:36.655Z,70.70
2018-08-10T09:39:04.159Z,72.90
2018-08-10T09:41:30.496Z,69.70
2018-08-10T09:43:58.124Z,69.30
2018-08-10T09:46:24.731Z,67.10
2018-08-10T09:48:54.224Z,70.20
2018-08-10T09:51:21.284Z,70.10
2018-08-10T09:53:53.600Z,71.10
2018-08-10T09:56:20.813Z,73.10
2018-08-10T09:58:47.053Z,72.90
2018-08-10T10:01:13.367Z,72.10
2018-08-10T10:03:39.616Z,71.70
2018-08-10T10:06:06.563Z,72.50
2018-08-10T10:08:34.474Z,72.00
2018-08-10T10:11:01.457Z,70.40
2018-08-10T10:13:29.107Z,70.40
2018-08-10T10:15:55.966Z,70.30
2018-08-10T10:18:22.313Z,71.90
2018-08-10T10:20:48.573Z,71.20
2018-08-10T10:23:17.089Z,72.20
2018-08-10T10:25:44.658Z,72.30
2018-08-10T10:28:10.977Z,72.20
2018-08-10T10:30:37.783Z,73.30
2018-08-10T10:33:04.115Z,73.10
2018-08-10T10:35:31.114Z,71.80
2018-08-10T10:37:57.394Z,71.70
2018-08-10T10:40:24.377Z,70.40
2018-08-10T10:42:50.661Z,70.40
2018-08-10T10:45:16.903Z,68.20
2018-08-10T10:47:53.185Z,66.50
2018-08-10T10:50:19.734Z,65.40
2018-08-10T10:52:46.132Z,65.50
2018-08-10T10:55:13.142Z,68.50
2018-08-10T10:57:39.390Z,68.30
2018-08-10T11:00:05.677Z,66.00
2018-08-10T11:02:31.985Z,67.80
2018-08-10T11:04:58.276Z,66.90
2018-08-10T11:07:24.508Z,68.20
2018-08-10T11:09:50.800Z,67.80
2018-08-10T11:12:17.053Z,66.30
2018-08-10T11:14:43.348Z,65.70
2018-08-10T11:17:09.588Z,65.20
2018-08-10T11:19:35.856Z,65.50
2018-08-10T11:22:02.113Z,65.60
2018-08-10T11:24:28.389Z,66.80
2018-08-10T11:26:55.096Z,68.30
2018-08-10T11:29:21.442Z,66.40
2018-08-10T11:31:47.686Z,66.60
2018-08-10T11:34:13.980Z,66.90
2018-08-10T11:36:41.654Z,67.30
2018-08-10T11:39:09.791Z,67.20
2018-08-10T11:41:36.556Z,65.90
2018-08-10T11:44:02.948Z,66.40
2018-08-10T11:46:29.275Z,64.80
2018-08-10T11:48:55.581Z,64.10
2018-08-10T11:51:21.851Z,63.90
2018-08-10T11:53:48.571Z,65.00
2018-08-10T11:56:15.790Z,66.00
2018-08-10T11:58:42.828Z,68.20
2018-08-10T12:01:09.824Z,67.20
2018-08-10T12:03:37.095Z,67.00
2018-08-10T12:06:07.345Z,67.00
2018-08-10T12:08:33.625Z,66.90
2018-08-10T12:10:59.861Z,67.70
2018-08-10T12:13:27.953Z,66.80
2018-08-10T12:15:54.468Z,66.40
2018-08-10T12:18:22.556Z,66.70
2018-08-10T12:20:48.829Z,66.00
2018-08-10T12:23:15.077Z,68.10
2018-08-10T12:25:41.364Z,67.40
2018-08-10T12:28:07.633Z,67.60
2018-08-10T12:30:33.966Z,67.60
2018-08-10T12:33:00.213Z,66.10
2018-08-10T12:35:26.521Z,67.50
2018-08-10T12:37:53.528Z,67.20
2018-08-10T12:40:19.809Z,67.20
2018-08-10T12:42:46.065Z,65.40
2018-08-10T12:45:12.361Z,63.50
2018-08-10T12:47:38.668Z,63.90
2018-08-10T12:50:04.992Z,64.20
2018-08-10T12:52:31.225Z,63.40
2018-08-10T12:54:57.517Z,63.60
2018-08-10T12:57:23.768Z,61.20
2018-08-10T12:59:50.068Z,60.40
2018-08-10T13:02:16.357Z,60.30
2018-08-10T13:04:42.630Z,62.30
2018-08-10T13:07:08.888Z,61.50
2018-08-10T13:09:35.157Z,61.40
2018-08-10T13:12:02.154Z,61.90
2018-08-10T13:14:28.440Z,61.80
2018-08-10T13:16:55.420Z,59.70
2018-08-10T13:19:21.710Z,59.10
2018-08-10T13:21:48.703Z,58.50
2018-08-10T13:24:14.985Z,58.50
2018-08-10T13:26:42.018Z,58.20
2018-08-10T13:29:08.279Z,58.30
2018-08-10T13:31:35.325Z,56.70
2018-08-10T13:34:02.327Z,56.70
2018-08-10T13:36:28.637Z,56.60
2018-08-10T13:38:54.900Z,56.20
2018-08-10T13:41:21.169Z,55.70
2018-08-10T13:43:48.168Z,55.80
2018-08-10T13:46:14.436Z,55.80
2018-08-10T13:48:41.448Z,55.90
2018-08-10T13:51:07.749Z,55.80
2018-08-10T13:53:34.021Z,56.30
2018-08-10T13:56:00.321Z,54.80
2018-08-10T13:58:26.575Z,55.00
2018-08-10T14:00:52.863Z,56.70
2018-08-10T14:03:19.174Z,55.90
2018-08-10T14:05:46.225Z,57.60
2018-08-10T14:08:13.194Z,57.10
2018-08-10T14:10:39.471Z,57.00
2018-08-10T14:13:05.736Z,57.10
2018-08-10T14:15:32.764Z,56.30
2018-08-10T14:17:59.014Z,56.30
2018-08-10T14:20:26.045Z,56.50
2018-08-10T14:22:53.063Z,58.10
2018-08-10T14:25:19.354Z,58.20
2018-08-10T14:27:45.639Z,58.50
2018-08-10T14:30:11.885Z,59.30
2018-08-10T14:32:38.172Z,58.40
2018-08-10T14:35:04.452Z,59.20
2018-08-10T14:37:31.508Z,57.90
2018-08-10T14:39:58.516Z,58.10
2018-08-10T14:42:24.809Z,58.20
2018-08-10T14:44:51.102Z,58.40
2018-08-10T14:47:18.183Z,57.60
2018-08-10T14:49:45.153Z,56.30
2018-08-10T14:52:11.452Z,56.80
2018-08-10T14:54:37.715Z,56.60
2018-08-10T14:57:04.004Z,56.90
2018-08-10T14:59:30.976Z,56.00
2018-08-10T15:01:57.306Z,56.00
2018-08-10T15:04:23.560Z,56.10
2018-08-10T15:06:49.845Z,55.70
2018-08-10T15:09:16.841Z,56.80
2018-08-10T15:11:43.132Z,56.30
2018-08-10T15:14:09.402Z,55.00
2018-08-10T15:16:35.700Z,54.20
2018-08-10T15:19:01.959Z,54.00
2018-08-10T15:21:28.245Z,55.00
2018-08-10T15:23:55.232Z,54.70
2018-08-10T15:26:21.513Z,54.70
2018-08-10T15:28:48.516Z,54.50
2018-08-10T15:31:14.808Z,54.40
2018-08-10T15:33:41.064Z,54.40
2018-08-10T15:36:07.356Z,54.60
2018-08-10T15:38:34.349Z,55.10
2018-08-10T15:41:00.646Z,55.10
2018-08-10T15:43:26.950Z,56.10
2018-08-10T15:45:53.185Z,55.10
2018-08-10T15:48:19.464Z,55.30
2018-08-10T15:50:45.727Z,54.80
2018-08-10T15:53:12.013Z,54.20
2018-08-10T15:55:38.278Z,53.80
2018-08-10T15:58:04.558Z,53.60
2018-08-10T16:00:30.816Z,53.50
2018-08-10T16:02:57.150Z,53.10
2018-08-10T16:05:23.411Z,52.90
2018-08-10T16:07:49.704Z,53.00
2018-08-10T16:10:15.961Z,53.60
2018-08-10T16:12:42.245Z,53.80
2018-08-10T16:15:08.499Z,54.50
2018-08-10T16:17:34.805Z,55.60
2018-08-10T16:20:01.077Z,55.90
2018-08-10T16:22:27.380Z,56.80
2018-08-10T16:24:53.627Z,56.00
2018-08-10T16:27:19.909Z,56.10
2018-08-10T16:29:46.929Z,58.00
2018-08-10T16:32:13.216Z,57.40
2018-08-10T16:34:39.496Z,56.90
2018-08-10T16:37:05.811Z,57.40
2018-08-10T16:39:32.076Z,57.70
2018-08-10T16:41:59.135Z,57.50
2018-08-10T16:44:25.454Z,57.50
2018-08-10T16:46:51.716Z,59.50
2018-08-10T16:49:17.972Z,58.30
2018-08-10T16:51:44.210Z,57.10
2018-08-10T16:54:10.488Z,58.10
2018-08-10T16:56:37.498Z,57.70
2018-08-10T16:59:03.815Z,57.70
2018-08-10T17:01:30.060Z,59.40
2018-08-10T17:03:56.388Z,57.60
2018-08-10T17:06:22.662Z,57.60
2018-08-10T17:08:49.693Z,59.10
2018-08-10T17:11:15.946Z,59.00
2018-08-10T17:13:42.977Z,57.30
2018-08-10T17:16:09.990Z,56.40
2018-08-10T17:18:36.300Z,56.30
2018-08-10T17:21:02.574Z,56.70
2018-08-10T17:23:28.857Z,57.10
2018-08-10T17:25:55.109Z,57.50
2018-08-10T17:28:21.413Z,57.70
2018-08-10T17:30:47.669Z,57.60
2018-08-10T17:33:14.067Z,58.80
2018-08-10T17:35:40.230Z,58.40
2018-08-10T17:38:06.521Z,57.60
2018-08-10T17:40:32.769Z,59.00
2018-08-10T17:42:59.060Z,59.00
2018-08-10T17:45:25.359Z,60.40
2018-08-10T17:47:51.650Z,63.70
2018-08-10T17:50:17.947Z,61.30
2018-08-10T17:52:44.276Z,59.40
2018-08-10T17:55:10.512Z,59.50
2018-08-10T17:57:37.560Z,59.70
2018-08-10T18:00:04.610Z,59.50
2018-08-10T18:02:31.647Z,62.70
2018-08-10T18:04:57.965Z,62.50
2018-08-10T18:07:24.209Z,60.50
2018-08-10T18:09:50.498Z,59.80
2018-08-10T18:12:16.744Z,60.10
2018-08-10T18:14:43.044Z,59.10
2018-08-10T18:17:09.286Z,61.60
2018-08-10T18:19:35.570Z,59.70
2018-08-10T18:22:02.572Z,61.70
2018-08-10T18:24:28.868Z,61.60
2018-08-10T18:26:55.874Z,62.90
2018-08-10T18:29:22.148Z,62.80
2018-08-10T18:31:48.410Z,63.00
2018-08-10T18:34:14.818Z,61.20
2018-08-10T18:36:41.000Z,62.30
2018-08-10T18:39:07.308Z,62.00
2018-08-10T18:41:33.553Z,62.00
2018-08-10T18:43:59.834Z,63.20
2018-08-10T18:46:26.082Z,64.90
2018-08-10T18:48:52.397Z,66.30
2018-08-10T18:51:18.700Z,66.40
2018-08-10T18:53:44.995Z,68.90
2018-08-10T18:56:11.272Z,69.20
2018-08-10T18:58:38.308Z,65.90
2018-08-10T19:01:04.564Z,65.90
2018-08-10T19:03:30.872Z,68.00
2018-08-10T19:05:57.120Z,71.70
2018-08-10T19:08:24.148Z,70.30
2018-08-10T19:10:50.397Z,70.40
2018-08-10T19:13:16.709Z,69.10
2018-08-10T19:15:43.005Z,68.00
2018-08-10T19:18:09.275Z,69.10
2018-08-10T19:20:36.307Z,71.80
2018-08-10T19:23:02.568Z,71.70
2018-08-10T19:25:29.632Z,73.00
2018-08-10T19:27:55.895Z,73.20
2018-08-10T19:30:22.228Z,74.40
2018-08-10T19:32:48.492Z,76.50
2018-08-10T19:35:14.802Z,74.20
2018-08-10T19:37:41.064Z,74.50
2018-08-10T19:40:08.144Z,74.10
2018-08-10T19:42:34.397Z,74.00
2018-08-10T19:45:00.684Z,75.70
2018-08-10T19:47:27.734Z,77.90
2018-08-10T19:49:54.102Z,77.90
2018-08-10T19:52:20.368Z,77.40
2018-08-10T19:54:46.688Z,78.10
2018-08-10T19:57:12.938Z,78.80
2018-08-10T19:59:39.224Z,78.20
2018-08-10T20:02:05.497Z,79.30
2018-08-10T20:04:31.785Z,79.70
2018-08-10T20:06:58.044Z,81.30
2018-08-10T20:09:24.336Z,80.70
2018-08-10T20:11:50.596Z,84.00
2018-08-10T20:14:16.901Z,84.00
2018-08-10T20:16:43.144Z,84.60
2018-08-10T20:19:09.432Z,84.30
2018-08-10T20:21:35.685Z,84.80
2018-08-10T20:24:01.999Z,85.50
2018-08-10T20:26:28.275Z,85.90
2018-08-10T20:28:54.531Z,86.80
2018-08-10T20:31:20.821Z,87.40
2018-08-10T20:33:47.081Z,87.40
2018-08-10T20:36:13.373Z,88.00
2018-08-10T20:38:39.621Z,88.80
2018-08-10T20:41:05.920Z,90.20
2018-08-10T20:43:32.157Z,89.40
2018-08-10T20:45:58.442Z,89.50
2018-08-10T20:48:24.701Z,89.10
2018-08-10T20:50:51.008Z,87.70
2018-08-10T20:53:17.239Z,88.10
2018-08-10T20:55:44.289Z,90.00
2018-08-10T20:58:10.565Z,90.00
2018-08-10T21:00:36.845Z,90.00
2018-08-10T21:03:03.089Z,90.30
2018-08-10T21:05:37.127Z,92.30
2018-08-10T21:08:03.401Z,92.30
2018-08-10T21:10:29.704Z,92.80
2018-08-10T21:12:55.970Z,93.20
2018-08-10T21:15:22.257Z,93.40
2018-08-10T21:17:48.526Z,93.70
2018-08-10T21:20:14.835Z,94.10
2018-08-10T21:22:41.093Z,94.40
2018-08-10T21:25:07.385Z,94.30
2018-08-10T21:27:33.642Z,95.20
2018-08-10T21:29:59.935Z,94.80
2018-08-10T21:32:26.172Z,95.60
2018-08-10T21:34:52.464Z,95.70
2018-08-10T21:37:19.457Z,95.80
2018-08-10T21:39:45.726Z,95.80
2018-08-10T21:42:12.001Z,96.20
2018-08-10T21:44:38.259Z,96.60
2018-08-10T21:47:04.547Z,96.40
2018-08-10T21:49:31.584Z,96.50
2018-08-10T21:51:58.634Z,96.80
2018-08-10T21:54:25.620Z,97.10
2018-08-10T21:56:51.926Z,97.10
2018-08-10T21:59:18.181Z,97.40
2018-08-10T22:01:44.464Z,97.30
2018-08-10T22:04:10.723Z,96.90
2018-08-10T22:06:37.019Z,97.20
2018-08-10T22:09:04.044Z,97.80
2018-08-10T22:11:30.340Z,97.80
2018-08-10T22:13:56.621Z,98.00
2018-08-10T22:16:38.768Z,98.20
2018-08-10T22:19:12.128Z,98.40
2018-08-10T22:21:38.424Z,98.50
2018-08-10T22:24:04.722Z,99.00
2018-08-10T22:26:31.717Z,99.40
2018-08-10T22:28:57.971Z,99.40
2018-08-10T22:31:25.017Z,99.50
2018-08-10T22:33:52.014Z,99.00
2018-08-10T22:36:18.304Z,99.00
2018-08-10T22:38:45.287Z,98.90
2018-08-10T22:41:11.618Z,98.90
2018-08-10T22:43:37.883Z,99.00
2018-08-10T22:46:04.176Z,98.80
2018-08-10T22:48:30.436Z,99.00
2018-08-10T22:50:56.748Z,99.00
2018-08-10T22:53:22.998Z,99.70
2018-08-10T22:55:49.305Z,99.90
2018-08-10T22:58:15.561Z,99.80
2018-08-10T23:00:41.825Z,99.90
2018-08-10T23:03:08.866Z,99.90
2018-08-10T23:05:35.160Z,99.90
2018-08-10T23:08:01.453Z,99.70
2018-08-10T23:10:27.717Z,99.60
2018-08-10T23:12:54.021Z,99.90
2018-08-10T23:15:20.293Z,99.90
2018-08-10T23:17:46.600Z,99.90
2018-08-10T23:20:12.856Z,99.90
2018-08-10T23:22:39.146Z,99.90
2018-08-10T23:25:05.406Z,99.90
2018-08-10T23:27:31.692Z,99.90
2018-08-10T23:29:58.694Z,99.90
2018-08-10T23:32:34.977Z,99.90
2018-08-10T23:35:08.972Z,99.90
2018-08-10T23:37:35.258Z,99.90
2018-08-10T23:40:01.522Z,99.90
2018-08-10T23:42:27.808Z,99.90
2018-08-10T23:45:04.064Z,99.90
2018-08-10T23:47:31.089Z,99.90
2018-08-10T23:49:57.377Z,99.90
2018-08-10T23:52:23.654Z,99.90
2018-08-10T23:54:49.895Z,99.90
2018-08-10T23:57:16.939Z,99.90
2018-08-10T23:59:43.196Z,99.90
